createdAt,value
2022-12-09T00:01:22.542Z,48.55
2022-12-09T00:03:50.910Z,48.17
2022-12-09T00:06:23.284Z,48.13
2022-12-09T00:08:52.473Z,47.91
2022-12-09T00:11:22.082Z,47.93
2022-12-09T00:13:55.911Z,47.99
2022-12-09T00:16:25.667Z,47.90
2022-12-09T00:18:53.704Z,47.82
2022-12-09T00:21:25.954Z,47.87
2022-12-09T00:23:55.731Z,47.91
2022-12-09T00:26:25.952Z,47.85
2022-12-09T00:28:56.114Z,48.03
2022-12-09T00:31:30.413Z,48.07
2022-12-09T00:34:02.499Z,48.04
2022-12-09T00:36:31.734Z,47.89
2022-12-09T00:39:00.488Z,47.90
2022-12-09T00:41:30.035Z,48.01
2022-12-09T00:43:59.087Z,47.98
2022-12-09T00:46:27.712Z,48.03
2022-12-09T00:48:56.406Z,48.19
2022-12-09T00:51:26.031Z,48.02
2022-12-09T00:53:54.692Z,48.12
2022-12-09T00:56:28.502Z,48.30
2022-12-09T00:58:58.749Z,48.23
2022-12-09T01:01:28.413Z,48.51
2022-12-09T01:03:57.393Z,48.37
2022-12-09T01:06:26.977Z,48.46
2022-12-09T01:08:55.519Z,48.53
2022-12-09T01:11:28.986Z,48.46
2022-12-09T01:14:02.701Z,48.42
2022-12-09T01:16:33.706Z,48.38
2022-12-09T01:19:04.977Z,48.28
2022-12-09T01:21:35.027Z,48.27
2022-12-09T01:24:09.241Z,48.00
2022-12-09T01:26:38.732Z,48.21
2022-12-09T01:29:09.795Z,48.45
2022-12-09T01:31:38.262Z,48.38
2022-12-09T01:34:06.534Z,48.45
2022-12-09T01:36:34.896Z,48.27
2022-12-09T01:39:03.428Z,48.26
2022-12-09T01:41:31.664Z,48.12
2022-12-09T01:44:31.899Z,48.07
2022-12-09T01:47:02.604Z,47.96
2022-12-09T01:49:42.679Z,48.04
2022-12-09T01:52:17.457Z,47.89
2022-12-09T01:54:47.243Z,48.16
2022-12-09T01:57:16.457Z,48.32
2022-12-09T01:59:46.623Z,48.72
2022-12-09T02:02:17.798Z,49.02
2022-12-09T02:04:48.783Z,49.12
2022-12-09T02:07:18.658Z,48.95
2022-12-09T02:09:47.240Z,49.00
2022-12-09T02:12:23.108Z,49.09
2022-12-09T02:15:03.387Z,49.18
2022-12-09T02:17:42.290Z,49.31
2022-12-09T02:20:33.487Z,48.94
2022-12-09T02:23:10.596Z,48.93
2022-12-09T02:25:46.465Z,48.99
2022-12-09T02:28:23.839Z,48.94
2022-12-09T02:31:04.424Z,48.90
2022-12-09T02:34:03.785Z,49.13
2022-12-09T02:36:40.426Z,49.24
2022-12-09T02:39:11.038Z,49.84
2022-12-09T02:41:44.133Z,50.43
2022-12-09T02:44:17.190Z,51.42
2022-12-09T02:46:46.813Z,52.43
2022-12-09T02:49:16.608Z,52.30
2022-12-09T02:51:45.751Z,52.66
2022-12-09T02:54:17.725Z,52.59
2022-12-09T02:56:54.147Z,52.00
2022-12-09T02:59:22.437Z,52.03
2022-12-09T03:02:21.104Z,52.24
2022-12-09T03:05:10.225Z,52.13
2022-12-09T03:08:03.416Z,51.90
2022-12-09T03:10:54.149Z,52.27
2022-12-09T03:13:37.734Z,52.29
2022-12-09T03:16:27.165Z,51.75
2022-12-09T03:19:01.820Z,52.16
2022-12-09T03:21:32.904Z,51.94
2022-12-09T03:24:02.650Z,52.46
2022-12-09T03:26:33.222Z,52.51
2022-12-09T03:29:06.006Z,52.66
2022-12-09T03:31:36.937Z,52.58
2022-12-09T03:34:07.949Z,52.71
2022-12-09T03:36:40.945Z,52.85
2022-12-09T03:39:19.285Z,52.82
2022-12-09T03:41:58.418Z,53.62
2022-12-09T03:44:31.281Z,54.01
2022-12-09T03:46:59.665Z,53.66
2022-12-09T03:49:28.367Z,53.49
2022-12-09T03:52:28.343Z,53.44
2022-12-09T03:55:07.025Z,53.60
2022-12-09T03:57:39.893Z,53.39
2022-12-09T04:00:09.482Z,53.45
2022-12-09T04:02:38.539Z,53.66
2022-12-09T04:05:07.779Z,53.19
2022-12-09T04:07:36.109Z,53.18
2022-12-09T04:10:04.995Z,52.88
2022-12-09T04:12:33.911Z,52.66
2022-12-09T04:15:02.575Z,52.34
2022-12-09T04:17:30.879Z,52.13
2022-12-09T04:19:59.947Z,51.64
2022-12-09T04:22:28.108Z,51.35
2022-12-09T04:24:56.586Z,51.06
2022-12-09T04:27:24.848Z,51.06
2022-12-09T04:29:53.223Z,51.02
2022-12-09T04:32:22.501Z,51.01
2022-12-09T04:34:51.327Z,50.87
2022-12-09T04:37:19.648Z,50.85
2022-12-09T04:39:47.932Z,50.85
2022-12-09T04:42:16.378Z,51.90
2022-12-09T04:44:44.454Z,52.63
2022-12-09T04:47:12.921Z,52.86
2022-12-09T04:49:40.955Z,52.38
2022-12-09T04:52:09.260Z,52.29
2022-12-09T04:54:37.362Z,51.87
2022-12-09T04:57:05.395Z,51.59
2022-12-09T04:59:33.700Z,51.67
2022-12-09T05:02:02.277Z,51.80
2022-12-09T05:04:30.661Z,51.68
2022-12-09T05:06:59.462Z,51.55
2022-12-09T05:09:27.857Z,51.39
2022-12-09T05:11:59.332Z,51.11
2022-12-09T05:14:27.548Z,50.84
2022-12-09T05:16:56.286Z,50.50
2022-12-09T05:19:25.206Z,50.26
2022-12-09T05:21:53.673Z,50.04
2022-12-09T05:24:21.908Z,50.00
2022-12-09T05:26:51.913Z,49.70
2022-12-09T05:29:23.029Z,49.67
2022-12-09T05:31:52.530Z,49.64
2022-12-09T05:34:21.153Z,49.45
2022-12-09T05:36:49.705Z,49.45
2022-12-09T05:39:18.233Z,49.40
2022-12-09T05:41:46.631Z,49.26
2022-12-09T05:44:15.318Z,49.30
2022-12-09T05:46:43.564Z,49.28
2022-12-09T05:49:12.148Z,49.31
2022-12-09T05:51:40.852Z,49.70
2022-12-09T05:54:09.164Z,50.20
2022-12-09T05:56:39.481Z,50.29
2022-12-09T05:59:11.454Z,50.64
2022-12-09T06:01:39.789Z,51.19
2022-12-09T06:04:08.240Z,50.86
2022-12-09T06:06:36.997Z,50.99
2022-12-09T06:09:05.873Z,50.64
2022-12-09T06:11:34.212Z,50.77
2022-12-09T06:14:02.831Z,50.84
2022-12-09T06:16:31.394Z,51.03
2022-12-09T06:18:59.992Z,50.96
2022-12-09T06:21:28.538Z,51.14
2022-12-09T06:23:57.464Z,51.37
2022-12-09T06:26:28.252Z,51.40
2022-12-09T06:28:57.760Z,51.16
2022-12-09T06:31:27.623Z,51.21
2022-12-09T06:33:58.335Z,50.96
2022-12-09T06:36:29.616Z,51.06
2022-12-09T06:39:04.497Z,50.92
2022-12-09T06:41:38.680Z,51.07
2022-12-09T06:44:07.533Z,51.47
2022-12-09T06:46:36.101Z,51.48
2022-12-09T06:49:04.879Z,51.71
2022-12-09T06:51:33.409Z,51.42
2022-12-09T06:54:02.441Z,51.35
2022-12-09T06:56:31.230Z,51.60
2022-12-09T06:58:59.929Z,51.12
2022-12-09T07:01:28.630Z,50.91
2022-12-09T07:03:57.428Z,50.65
2022-12-09T07:06:32.840Z,50.72
2022-12-09T07:09:05.496Z,51.07
2022-12-09T07:11:35.048Z,50.85
2022-12-09T07:14:04.441Z,50.90
2022-12-09T07:16:33.092Z,50.90
2022-12-09T07:19:03.408Z,50.78
2022-12-09T07:21:33.235Z,50.71
2022-12-09T07:24:03.728Z,50.59
2022-12-09T07:26:33.717Z,50.58
2022-12-09T07:29:03.826Z,50.53
2022-12-09T07:31:33.658Z,50.31
2022-12-09T07:34:03.952Z,50.51
2022-12-09T07:36:34.532Z,50.56
2022-12-09T07:39:06.551Z,50.24
2022-12-09T07:41:35.311Z,49.80
2022-12-09T07:44:04.907Z,49.73
2022-12-09T07:46:34.109Z,49.70
2022-12-09T07:49:06.356Z,49.17
2022-12-09T07:51:34.992Z,48.66
2022-12-09T07:54:04.121Z,48.42
2022-12-09T07:56:32.268Z,48.33
2022-12-09T07:59:00.829Z,48.02
2022-12-09T08:01:30.194Z,47.91
2022-12-09T08:03:59.322Z,47.45
2022-12-09T08:06:29.668Z,46.93
2022-12-09T08:09:04.085Z,46.53
2022-12-09T08:11:34.176Z,46.32
2022-12-09T08:14:11.070Z,46.33
2022-12-09T08:16:42.598Z,46.26
2022-12-09T08:19:12.212Z,45.87
2022-12-09T08:21:40.760Z,45.06
2022-12-09T08:24:11.991Z,45.08
2022-12-09T08:26:42.213Z,44.80
2022-12-09T08:29:13.295Z,44.75
2022-12-09T08:31:43.710Z,44.26
2022-12-09T08:34:13.177Z,44.37
2022-12-09T08:36:42.687Z,44.30
2022-12-09T08:39:13.200Z,44.25
2022-12-09T08:41:43.834Z,43.32
2022-12-09T08:44:16.192Z,43.17
2022-12-09T08:46:48.522Z,42.48
2022-12-09T08:49:19.436Z,41.31
2022-12-09T08:51:50.196Z,38.55
2022-12-09T08:54:19.829Z,37.35
2022-12-09T08:56:50.202Z,36.94
2022-12-09T08:59:19.491Z,35.56
2022-12-09T09:01:48.654Z,35.51
2022-12-09T09:04:19.375Z,34.32
2022-12-09T09:06:50.418Z,35.07
2022-12-09T09:09:21.354Z,35.47
2022-12-09T09:11:50.245Z,34.21
2022-12-09T09:14:18.406Z,33.09
2022-12-09T09:16:47.259Z,33.32
2022-12-09T09:19:20.409Z,32.32
2022-12-09T09:21:49.859Z,32.82
2022-12-09T09:24:20.592Z,32.16
2022-12-09T09:26:50.489Z,32.47
2022-12-09T09:29:22.043Z,32.37
2022-12-09T09:31:51.943Z,32.50
2022-12-09T09:34:21.712Z,32.58
2022-12-09T09:36:50.503Z,32.46
2022-12-09T09:39:20.170Z,33.92
2022-12-09T09:41:48.261Z,34.45
2022-12-09T09:44:34.797Z,35.29
2022-12-09T09:47:12.467Z,35.86
2022-12-09T09:49:47.021Z,36.30
2022-12-09T09:52:21.834Z,36.65
2022-12-09T09:54:51.361Z,37.07
2022-12-09T09:57:25.641Z,37.25
2022-12-09T10:00:22.658Z,37.45
2022-12-09T10:03:02.848Z,37.67
2022-12-09T10:05:36.523Z,37.86
2022-12-09T10:08:37.583Z,38.41
2022-12-09T10:11:21.435Z,38.87
2022-12-09T10:14:20.379Z,39.04
2022-12-09T10:17:18.546Z,38.84
2022-12-09T10:19:50.524Z,38.58
2022-12-09T10:22:29.105Z,38.41
2022-12-09T10:25:03.469Z,38.19
2022-12-09T10:27:45.969Z,37.90
2022-12-09T10:30:17.651Z,37.70
2022-12-09T10:32:46.851Z,37.53
2022-12-09T10:35:25.751Z,37.69
2022-12-09T10:37:57.109Z,37.91
2022-12-09T10:40:36.271Z,38.01
2022-12-09T10:43:24.783Z,38.07
2022-12-09T10:48:47.966Z,38.35
2022-12-09T10:51:29.036Z,38.22
2022-12-09T10:54:22.468Z,38.45
2022-12-09T10:57:27.630Z,38.66
2022-12-09T11:00:03.295Z,38.58
2022-12-09T11:02:33.876Z,38.78
2022-12-09T11:05:24.093Z,38.79
2022-12-09T11:07:54.658Z,39.29
2022-12-09T11:10:26.611Z,39.61
2022-12-09T11:13:04.585Z,39.96
2022-12-09T11:15:46.169Z,40.05
2022-12-09T11:18:24.670Z,40.47
2022-12-09T11:21:03.125Z,40.38
2022-12-09T11:23:32.641Z,40.38
2022-12-09T11:26:07.561Z,40.37
2022-12-09T11:28:39.566Z,40.49
2022-12-09T11:31:29.326Z,41.15
2022-12-09T11:34:01.403Z,41.20
2022-12-09T11:36:49.970Z,41.31
2022-12-09T11:39:20.295Z,41.25
2022-12-09T11:41:53.154Z,41.78
2022-12-09T11:44:31.809Z,41.78
2022-12-09T11:47:09.796Z,42.35
2022-12-09T11:49:51.326Z,42.63
2022-12-09T11:52:19.322Z,43.21
2022-12-09T11:55:11.613Z,42.81
2022-12-09T11:57:45.811Z,42.52
2022-12-09T12:00:19.424Z,42.82
2022-12-09T12:03:04.541Z,43.10
2022-12-09T12:05:48.436Z,42.71
2022-12-09T12:08:55.829Z,42.12
2022-12-09T12:11:31.770Z,41.75
2022-12-09T12:14:19.387Z,41.38
2022-12-09T12:16:50.533Z,40.74
2022-12-09T12:19:43.487Z,40.41
2022-12-09T12:22:17.622Z,40.43
2022-12-09T12:25:18.224Z,40.20
2022-12-09T12:28:14.621Z,40.22
2022-12-09T12:30:54.940Z,40.40
2022-12-09T12:36:27.174Z,40.59
2022-12-09T12:38:58.272Z,40.59
2022-12-09T12:41:43.374Z,40.54
2022-12-09T12:44:49.059Z,40.66
2022-12-09T12:47:43.539Z,40.59
2022-12-09T12:50:20.504Z,40.38
2022-12-09T12:53:01.027Z,40.30
2022-12-09T12:55:54.022Z,40.21
2022-12-09T12:58:31.124Z,39.95
2022-12-09T13:01:02.264Z,40.22
2022-12-09T13:04:06.225Z,40.45
2022-12-09T13:06:50.628Z,40.96
2022-12-09T13:09:25.879Z,41.26
2022-12-09T13:12:21.450Z,41.20
2022-12-09T13:14:53.995Z,41.17
2022-12-09T13:17:29.504Z,41.68
2022-12-09T13:20:01.402Z,41.59
2022-12-09T13:22:52.594Z,41.77
2022-12-09T13:25:35.540Z,41.70
2022-12-09T13:28:51.904Z,42.17
2022-12-09T13:31:28.512Z,42.12
2022-12-09T13:34:02.877Z,42.31
2022-12-09T13:36:47.559Z,42.29
2022-12-09T13:39:40.787Z,42.49
2022-12-09T13:42:24.250Z,42.01
2022-12-09T13:45:05.665Z,42.31
2022-12-09T13:47:36.872Z,42.20
2022-12-09T13:50:23.477Z,42.33
2022-12-09T13:52:56.256Z,42.11
2022-12-09T13:55:33.472Z,41.70
2022-12-09T13:58:20.338Z,41.88
2022-12-09T14:01:11.890Z,41.65
2022-12-09T14:03:49.714Z,41.80
2022-12-09T14:06:33.017Z,41.81
2022-12-09T14:09:06.084Z,42.04
2022-12-09T14:11:43.137Z,42.95
2022-12-09T14:14:23.789Z,43.45
2022-12-09T14:17:25.544Z,43.60
2022-12-09T14:20:00.608Z,43.87
2022-12-09T14:22:33.089Z,43.75
2022-12-09T14:25:27.105Z,44.08
2022-12-09T14:28:26.240Z,43.88
2022-12-09T14:30:59.731Z,43.63
2022-12-09T14:33:34.785Z,43.60
2022-12-09T14:36:14.873Z,43.36
2022-12-09T14:39:16.097Z,43.40
2022-12-09T14:41:52.224Z,43.24
2022-12-09T14:44:45.150Z,43.09
2022-12-09T14:47:22.717Z,43.06
2022-12-09T14:49:52.951Z,42.78
2022-12-09T14:52:30.706Z,42.52
2022-12-09T14:55:02.655Z,42.48
2022-12-09T14:57:37.683Z,42.45
2022-12-09T15:00:07.698Z,42.56
2022-12-09T15:02:35.990Z,41.94
2022-12-09T15:05:16.902Z,42.07
2022-12-09T15:07:45.827Z,41.91
2022-12-09T15:10:34.934Z,41.79
2022-12-09T15:13:03.781Z,42.08
2022-12-09T15:15:35.710Z,42.02
2022-12-09T15:18:16.374Z,42.54
2022-12-09T15:20:54.313Z,42.68
2022-12-09T15:23:23.831Z,43.01
2022-12-09T15:25:54.510Z,43.04
2022-12-09T15:28:26.752Z,42.98
2022-12-09T15:31:00.824Z,43.02
2022-12-09T15:33:32.788Z,43.15
2022-12-09T15:36:04.451Z,43.03
2022-12-09T15:38:40.705Z,42.97
2022-12-09T15:41:10.274Z,42.93
2022-12-09T15:43:40.914Z,43.14
2022-12-09T15:46:10.975Z,43.01
2022-12-09T15:48:45.764Z,43.21
2022-12-09T15:51:18.926Z,43.26
2022-12-09T15:53:57.875Z,43.60
2022-12-09T15:56:52.085Z,43.19
2022-12-09T15:59:22.522Z,43.39
2022-12-09T16:01:56.850Z,43.44
2022-12-09T16:04:29.793Z,43.40
2022-12-09T16:07:08.855Z,43.23
2022-12-09T16:09:36.999Z,43.25
2022-12-09T16:12:05.783Z,43.03
2022-12-09T16:14:44.454Z,43.10
2022-12-09T16:17:36.810Z,43.12
2022-12-09T16:20:32.912Z,43.51
2022-12-09T16:23:02.629Z,43.06
2022-12-09T16:25:39.128Z,43.40
2022-12-09T16:28:07.341Z,43.18
2022-12-09T16:30:45.455Z,43.34
2022-12-09T16:33:39.258Z,43.31
2022-12-09T16:36:07.792Z,43.38
2022-12-09T16:38:37.528Z,43.80
2022-12-09T16:41:09.225Z,44.15
2022-12-09T16:43:53.246Z,44.00
2022-12-09T16:46:40.791Z,44.20
2022-12-09T16:49:09.009Z,44.11
2022-12-09T16:51:38.645Z,44.42
2022-12-09T16:54:19.628Z,44.73
2022-12-09T16:56:48.638Z,44.73
2022-12-09T16:59:16.954Z,44.84
2022-12-09T17:01:45.233Z,44.63
2022-12-09T17:04:13.471Z,44.69
2022-12-09T17:06:41.488Z,45.17
2022-12-09T17:09:10.705Z,45.08
2022-12-09T17:11:40.995Z,45.46
2022-12-09T17:14:12.747Z,45.22
2022-12-09T17:16:40.853Z,46.07
2022-12-09T17:19:08.993Z,45.89
2022-12-09T17:21:37.013Z,45.95
2022-12-09T17:24:05.660Z,45.60
2022-12-09T17:26:33.648Z,45.45
2022-12-09T17:29:02.240Z,45.47
2022-12-09T17:31:30.409Z,45.86
2022-12-09T17:33:58.703Z,45.84
2022-12-09T17:36:26.836Z,45.76
2022-12-09T17:38:55.124Z,45.64
2022-12-09T17:41:23.148Z,45.71
2022-12-09T17:43:51.868Z,46.03
2022-12-09T17:46:19.948Z,46.21
2022-12-09T17:48:48.001Z,45.87
2022-12-09T17:51:16.704Z,45.47
2022-12-09T17:53:46.640Z,45.92
2022-12-09T17:56:18.514Z,45.72
2022-12-09T17:58:47.310Z,45.58
2022-12-09T18:01:22.053Z,45.48
2022-12-09T18:04:01.366Z,45.48
2022-12-09T18:06:32.286Z,45.64
2022-12-09T18:09:01.697Z,45.43
2022-12-09T18:11:29.777Z,45.35
2022-12-09T18:13:58.258Z,45.20
2022-12-09T18:16:26.438Z,44.94
2022-12-09T18:18:55.004Z,44.86
2022-12-09T18:21:23.230Z,44.57
2022-12-09T18:23:51.319Z,44.61
2022-12-09T18:26:19.930Z,44.45
2022-12-09T18:28:48.382Z,44.39
2022-12-09T18:31:18.177Z,44.46
2022-12-09T18:33:46.959Z,44.50
2022-12-09T18:36:20.246Z,44.33
2022-12-09T18:38:49.136Z,44.36
2022-12-09T18:41:23.426Z,44.33
2022-12-09T18:43:54.367Z,44.27
2022-12-09T18:46:26.533Z,44.05
2022-12-09T18:49:01.994Z,44.15
2022-12-09T18:51:31.078Z,43.96
2022-12-09T18:54:01.446Z,43.82
2022-12-09T18:56:30.459Z,44.12
2022-12-09T18:59:07.999Z,44.05
2022-12-09T19:01:42.591Z,44.21
2022-12-09T19:04:14.606Z,44.26
2022-12-09T19:06:45.306Z,44.43
2022-12-09T19:09:20.711Z,44.27
2022-12-09T19:11:50.275Z,44.36
2022-12-09T19:14:21.003Z,44.10
2022-12-09T19:16:50.363Z,44.11
2022-12-09T19:19:22.902Z,43.57
2022-12-09T19:21:55.399Z,44.04
2022-12-09T19:24:30.498Z,43.86
2022-12-09T19:27:02.340Z,43.87
2022-12-09T19:29:30.448Z,43.52
2022-12-09T19:31:58.509Z,43.83
2022-12-09T19:34:29.585Z,43.85
2022-12-09T19:37:00.490Z,44.10
2022-12-09T19:39:31.063Z,43.88
2022-12-09T19:41:59.542Z,43.83
2022-12-09T19:44:59.413Z,43.65
2022-12-09T19:47:17.072Z,43.51
2022-12-09T19:49:45.064Z,43.56
2022-12-09T19:52:13.149Z,43.54
2022-12-09T19:54:41.613Z,43.56
2022-12-09T19:57:10.214Z,43.66
2022-12-09T19:59:38.239Z,43.43
2022-12-09T20:02:07.364Z,43.74
2022-12-09T20:04:51.525Z,43.69
2022-12-09T20:07:20.949Z,43.89
2022-12-09T20:09:49.178Z,43.78
2022-12-09T20:12:17.203Z,43.87
2022-12-09T20:14:46.631Z,43.99
2022-12-09T20:17:14.699Z,43.86
2022-12-09T20:19:42.672Z,43.64
2022-12-09T20:22:11.079Z,43.49
2022-12-09T20:24:39.253Z,43.55
2022-12-09T20:27:07.310Z,43.40
2022-12-09T20:29:38.346Z,43.25
2022-12-09T20:32:08.619Z,43.12
2022-12-09T20:34:37.404Z,43.11
2022-12-09T20:37:05.614Z,43.24
2022-12-09T20:39:33.775Z,43.16
2022-12-09T20:42:02.069Z,42.66
2022-12-09T20:44:30.131Z,42.94
2022-12-09T20:46:58.360Z,43.00
2022-12-09T20:49:27.251Z,43.05
2022-12-09T20:51:55.703Z,43.29
2022-12-09T20:54:23.803Z,43.08
2022-12-09T20:56:52.631Z,43.03
2022-12-09T20:59:20.863Z,43.06
2022-12-09T21:01:48.977Z,42.96
2022-12-09T21:04:17.444Z,43.24
2022-12-09T21:06:46.216Z,43.15
2022-12-09T21:09:19.997Z,43.22
2022-12-09T21:11:49.654Z,42.85
2022-12-09T21:14:18.044Z,42.81
2022-12-09T21:16:47.941Z,43.22
2022-12-09T21:19:17.673Z,43.51
2022-12-09T21:21:46.519Z,43.82
2022-12-09T21:24:16.284Z,44.04
2022-12-09T21:26:44.980Z,43.95
2022-12-09T21:29:14.183Z,43.90
2022-12-09T21:31:43.104Z,43.94
2022-12-09T21:34:11.414Z,44.17
2022-12-09T21:36:42.707Z,43.99
2022-12-09T21:39:14.296Z,44.32
2022-12-09T21:41:42.924Z,43.93
2022-12-09T21:44:17.057Z,43.74
2022-12-09T21:46:46.128Z,43.62
2022-12-09T21:49:14.541Z,43.53
2022-12-09T21:51:43.362Z,43.69
2022-12-09T21:54:12.024Z,43.46
2022-12-09T21:56:40.352Z,43.63
2022-12-09T21:59:10.640Z,43.68
2022-12-09T22:01:41.424Z,43.67
2022-12-09T22:04:13.849Z,43.63
2022-12-09T22:06:48.138Z,42.99
2022-12-09T22:09:18.260Z,42.75
2022-12-09T22:11:46.267Z,42.79
2022-12-09T22:14:14.290Z,42.79
2022-12-09T22:16:44.549Z,43.09
2022-12-09T22:19:18.436Z,43.34
2022-12-09T22:21:47.304Z,43.85
2022-12-09T22:24:15.773Z,43.77
2022-12-09T22:26:44.259Z,43.67
2022-12-09T22:29:14.633Z,43.72
2022-12-09T22:31:43.972Z,43.81
2022-12-09T22:34:17.890Z,43.55
2022-12-09T22:36:47.849Z,43.15
2022-12-09T22:39:18.751Z,42.97
2022-12-09T22:41:46.854Z,43.12
2022-12-09T22:44:17.718Z,43.05
2022-12-09T22:46:46.279Z,42.90
2022-12-09T22:49:15.733Z,43.02
2022-12-09T22:51:44.880Z,42.87
2022-12-09T22:54:14.610Z,42.78
2022-12-09T22:56:43.887Z,42.84
2022-12-09T22:59:14.252Z,42.69
2022-12-09T23:01:45.044Z,42.55
2022-12-09T23:04:16.118Z,42.17
2022-12-09T23:06:44.664Z,41.99
2022-12-09T23:09:21.680Z,41.97
2022-12-09T23:11:51.707Z,41.70
2022-12-09T23:14:20.047Z,41.79
2022-12-09T23:16:48.176Z,41.18
2022-12-09T23:19:16.293Z,41.08
2022-12-09T23:21:44.281Z,40.96
2022-12-09T23:24:21.005Z,40.97
2022-12-09T23:26:55.869Z,41.02
2022-12-09T23:29:23.989Z,40.80
2022-12-09T23:31:52.253Z,40.94
2022-12-09T23:34:22.284Z,41.15
2022-12-09T23:36:50.785Z,40.93
2022-12-09T23:39:19.607Z,41.04
2022-12-09T23:41:49.060Z,41.03
2022-12-09T23:44:19.160Z,41.02
2022-12-09T23:46:47.249Z,41.11
2022-12-09T23:49:15.425Z,40.92
2022-12-09T23:51:44.179Z,40.80
2022-12-09T23:54:14.806Z,40.76
2022-12-09T23:56:44.738Z,40.85
2022-12-09T23:59:14.636Z,41.37
